createdAt,value
2023-06-28T00:00:57.490Z,75.18
2023-06-28T00:03:24.028Z,74.43
2023-06-28T00:05:50.493Z,75.43
2023-06-28T00:08:17.021Z,75.13
2023-06-28T00:10:43.761Z,75.63
2023-06-28T00:13:10.381Z,76.25
2023-06-28T00:15:36.971Z,77.17
2023-06-28T00:18:04.043Z,78.45
2023-06-28T00:20:31.195Z,78.38
2023-06-28T00:22:57.760Z,78.97
2023-06-28T00:25:24.313Z,78.67
2023-06-28T00:27:50.911Z,79.75
2023-06-28T00:30:17.819Z,79.63
2023-06-28T00:32:44.665Z,79.10
2023-06-28T00:35:11.179Z,78.30
2023-06-28T00:37:37.716Z,78.50
2023-06-28T00:40:06.927Z,78.40
2023-06-28T00:42:33.654Z,78.36
2023-06-28T00:45:00.655Z,78.63
2023-06-28T00:47:28.749Z,77.28
2023-06-28T00:49:56.403Z,77.36
2023-06-28T00:52:23.216Z,78.06
2023-06-28T00:54:50.273Z,77.22
2023-06-28T00:57:16.932Z,76.08
2023-06-28T00:59:43.812Z,77.08
2023-06-28T01:02:11.487Z,78.00
2023-06-28T01:04:39.110Z,78.77
2023-06-28T01:07:05.920Z,78.06
2023-06-28T01:09:32.731Z,76.76
2023-06-28T01:11:59.659Z,77.71
2023-06-28T01:14:26.506Z,76.07
2023-06-28T01:16:56.242Z,77.14
2023-06-28T01:19:27.377Z,77.11
2023-06-28T01:22:00.755Z,76.75
2023-06-28T01:24:27.733Z,75.52
2023-06-28T01:26:54.924Z,76.00
2023-06-28T01:29:23.007Z,74.97
2023-06-28T01:31:53.868Z,77.22
2023-06-28T01:34:21.042Z,76.64
2023-06-28T01:36:47.844Z,77.20
2023-06-28T01:39:15.599Z,77.62
2023-06-28T01:41:42.724Z,78.01
2023-06-28T01:44:09.234Z,77.89
2023-06-28T01:46:36.026Z,76.44
2023-06-28T01:49:02.933Z,75.56
2023-06-28T01:51:29.535Z,76.49
2023-06-28T01:53:56.610Z,77.21
2023-06-28T01:56:23.120Z,77.49
2023-06-28T01:58:49.568Z,77.04
2023-06-28T02:01:16.112Z,77.34
2023-06-28T02:03:42.670Z,77.58
2023-06-28T02:06:09.875Z,78.18
2023-06-28T02:08:36.506Z,78.36
2023-06-28T02:11:03.040Z,79.47
2023-06-28T02:13:29.585Z,78.91
2023-06-28T02:15:56.567Z,78.64
2023-06-28T02:18:26.265Z,78.79
2023-06-28T02:20:52.944Z,77.49
2023-06-28T02:23:22.275Z,77.02
2023-06-28T02:25:48.822Z,76.81
2023-06-28T02:28:15.818Z,76.76
2023-06-28T02:30:42.545Z,76.91
2023-06-28T02:33:09.338Z,76.73
2023-06-28T02:35:35.826Z,77.14
2023-06-28T02:38:02.311Z,76.05
2023-06-28T02:40:28.813Z,77.54
2023-06-28T02:42:55.350Z,78.06
2023-06-28T02:45:21.827Z,77.89
2023-06-28T02:47:48.312Z,77.67
2023-06-28T02:50:14.912Z,77.35
2023-06-28T02:52:41.422Z,77.25
2023-06-28T02:55:08.888Z,78.04
2023-06-28T02:57:35.525Z,78.32
2023-06-28T03:00:02.222Z,77.93
2023-06-28T03:02:28.866Z,78.59
2023-06-28T03:04:55.375Z,78.15
2023-06-28T03:07:21.979Z,78.71
2023-06-28T03:09:48.552Z,78.29
2023-06-28T03:12:15.044Z,77.76
2023-06-28T03:14:41.574Z,76.62
2023-06-28T03:17:08.368Z,76.48
2023-06-28T03:19:35.383Z,76.75
2023-06-28T03:22:02.288Z,76.95
2023-06-28T03:24:29.527Z,78.31
2023-06-28T03:26:56.619Z,78.76
2023-06-28T03:29:23.184Z,78.16
2023-06-28T03:31:49.763Z,78.69
2023-06-28T03:34:17.837Z,78.61
2023-06-28T03:36:54.420Z,78.26
2023-06-28T03:39:29.775Z,79.05
2023-06-28T03:41:56.249Z,79.33
2023-06-28T03:44:22.746Z,79.17
2023-06-28T03:46:49.226Z,79.66
2023-06-28T03:49:15.703Z,79.75
2023-06-28T03:51:42.211Z,80.20
2023-06-28T03:54:08.676Z,80.81
2023-06-28T03:56:35.176Z,80.26
2023-06-28T03:59:01.776Z,80.40
2023-06-28T04:01:28.302Z,80.33
2023-06-28T04:03:54.836Z,81.39
2023-06-28T04:06:21.403Z,81.42
2023-06-28T04:08:48.170Z,81.98
2023-06-28T04:11:14.781Z,81.64
2023-06-28T04:13:41.259Z,81.52
2023-06-28T04:16:07.743Z,81.64
2023-06-28T04:18:34.256Z,81.99
2023-06-28T04:21:00.750Z,81.53
2023-06-28T04:23:27.215Z,82.37
2023-06-28T04:25:54.430Z,81.68
2023-06-28T04:28:20.961Z,82.07
2023-06-28T04:30:47.469Z,82.45
2023-06-28T04:33:19.349Z,82.64
2023-06-28T04:35:49.012Z,82.42
2023-06-28T04:38:15.948Z,83.00
2023-06-28T04:40:42.732Z,83.26
2023-06-28T04:43:11.524Z,83.01
2023-06-28T04:45:38.866Z,83.36
2023-06-28T04:48:06.858Z,83.47
2023-06-28T04:50:34.699Z,83.29
2023-06-28T04:53:02.025Z,84.17
2023-06-28T04:55:34.030Z,84.14
2023-06-28T04:58:04.443Z,83.96
2023-06-28T05:00:31.377Z,83.68
2023-06-28T05:02:58.791Z,83.61
2023-06-28T05:05:25.938Z,84.10
2023-06-28T05:07:55.761Z,84.07
2023-06-28T05:10:24.641Z,83.03
2023-06-28T05:12:52.815Z,84.63
2023-06-28T05:15:20.077Z,84.54
2023-06-28T05:17:46.991Z,84.21
2023-06-28T05:20:15.533Z,84.93
2023-06-28T05:22:45.376Z,84.36
2023-06-28T05:25:12.021Z,85.00
2023-06-28T05:27:38.555Z,84.78
2023-06-28T05:30:05.733Z,84.84
2023-06-28T05:32:32.539Z,85.54
2023-06-28T05:34:59.151Z,86.07
2023-06-28T05:37:25.682Z,85.13
2023-06-28T05:39:52.232Z,85.19
2023-06-28T05:42:18.757Z,85.33
2023-06-28T05:44:45.251Z,86.15
2023-06-28T05:47:11.802Z,86.06
2023-06-28T05:49:39.114Z,86.19
2023-06-28T05:52:06.448Z,85.21
2023-06-28T05:54:32.959Z,85.75
2023-06-28T05:56:59.473Z,85.44
2023-06-28T05:59:25.987Z,85.79
2023-06-28T06:01:55.428Z,85.37
2023-06-28T06:04:22.349Z,85.82
2023-06-28T06:06:48.879Z,85.96
2023-06-28T06:09:15.416Z,86.06
2023-06-28T06:11:41.884Z,86.11
2023-06-28T06:14:08.583Z,85.71
2023-06-28T06:16:35.072Z,85.51
2023-06-28T06:19:01.602Z,86.40
2023-06-28T06:21:28.167Z,86.35
2023-06-28T06:23:54.761Z,86.82
2023-06-28T06:26:21.206Z,86.95
2023-06-28T06:28:47.754Z,86.55
2023-06-28T06:31:16.193Z,86.84
2023-06-28T06:33:43.002Z,86.48
2023-06-28T06:36:09.571Z,86.96
2023-06-28T06:38:38.517Z,86.63
2023-06-28T06:41:05.167Z,86.68
2023-06-28T06:43:31.742Z,86.72
2023-06-28T06:45:58.398Z,86.08
2023-06-28T06:48:25.046Z,86.78
2023-06-28T06:50:51.554Z,86.71
2023-06-28T06:53:18.297Z,86.91
2023-06-28T06:55:44.803Z,86.91
2023-06-28T06:58:11.323Z,87.16
2023-06-28T07:00:38.440Z,87.54
2023-06-28T07:03:05.250Z,86.99
2023-06-28T07:05:31.802Z,86.72
2023-06-28T07:07:58.365Z,85.67
2023-06-28T07:10:24.871Z,85.80
2023-06-28T07:12:51.382Z,86.54
2023-06-28T07:15:18.117Z,86.33
2023-06-28T07:17:44.704Z,86.15
2023-06-28T07:20:11.518Z,86.20
2023-06-28T07:22:38.026Z,85.78
2023-06-28T07:25:05.734Z,86.14
2023-06-28T07:27:32.287Z,87.00
2023-06-28T07:29:58.820Z,85.88
2023-06-28T07:32:27.803Z,86.24
2023-06-28T07:34:56.160Z,85.48
2023-06-28T07:37:23.289Z,85.68
2023-06-28T07:39:50.139Z,85.71
2023-06-28T07:42:16.759Z,85.22
2023-06-28T07:44:44.458Z,85.62
2023-06-28T07:47:10.955Z,86.72
2023-06-28T07:49:37.629Z,86.07
2023-06-28T07:52:04.295Z,86.50
2023-06-28T07:54:34.526Z,86.30
2023-06-28T07:57:02.206Z,86.59
2023-06-28T07:59:28.858Z,85.70
2023-06-28T08:01:55.335Z,86.04
2023-06-28T08:04:21.819Z,86.13
2023-06-28T08:06:48.469Z,85.82
2023-06-28T08:09:15.126Z,86.08
2023-06-28T08:11:41.971Z,85.44
2023-06-28T08:14:08.713Z,84.86
2023-06-28T08:16:35.487Z,85.04
2023-06-28T08:19:02.103Z,84.82
2023-06-28T08:21:28.673Z,85.05
2023-06-28T08:23:55.195Z,85.65
2023-06-28T08:26:21.935Z,85.26
2023-06-28T08:28:58.671Z,85.08
2023-06-28T08:31:26.909Z,84.73
2023-06-28T08:33:53.533Z,85.06
2023-06-28T08:36:20.034Z,84.46
2023-06-28T08:38:46.583Z,84.36
2023-06-28T08:41:13.360Z,83.91
2023-06-28T08:43:39.931Z,83.90
2023-06-28T08:46:06.518Z,84.48
2023-06-28T08:48:33.379Z,84.37
2023-06-28T08:51:00.273Z,84.68
2023-06-28T08:53:30.312Z,84.98
2023-06-28T08:55:58.014Z,84.87
2023-06-28T08:58:24.600Z,83.35
2023-06-28T09:00:51.202Z,83.17
2023-06-28T09:03:17.879Z,83.75
2023-06-28T09:05:45.621Z,83.47
2023-06-28T09:08:13.091Z,83.85
2023-06-28T09:10:40.650Z,82.75
2023-06-28T09:13:07.757Z,81.90
2023-06-28T09:15:35.499Z,81.13
2023-06-28T09:18:02.319Z,81.39
2023-06-28T09:20:28.841Z,80.99
2023-06-28T09:22:59.926Z,81.34
2023-06-28T09:25:28.792Z,81.09
2023-06-28T09:27:56.439Z,80.85
2023-06-28T09:30:23.113Z,80.41
2023-06-28T09:32:53.030Z,80.39
2023-06-28T09:35:20.553Z,78.63
2023-06-28T09:37:51.919Z,77.32
2023-06-28T09:40:19.232Z,77.89
2023-06-28T09:42:47.789Z,77.67
2023-06-28T09:45:28.465Z,75.95
2023-06-28T09:47:59.373Z,76.76
2023-06-28T09:50:37.906Z,76.13
2023-06-28T09:53:08.874Z,75.98
2023-06-28T09:55:37.393Z,75.00
2023-06-28T09:58:04.025Z,75.03
2023-06-28T10:00:32.615Z,74.35
2023-06-28T10:03:00.053Z,74.10
2023-06-28T10:05:27.736Z,74.99
2023-06-28T10:07:54.789Z,75.01
2023-06-28T10:10:21.420Z,75.44
2023-06-28T10:12:48.103Z,74.35
2023-06-28T10:15:22.085Z,72.74
2023-06-28T10:17:48.920Z,73.23
2023-06-28T10:20:15.472Z,72.44
2023-06-28T10:22:42.272Z,72.22
2023-06-28T10:25:08.866Z,71.60
2023-06-28T10:27:35.840Z,71.17
2023-06-28T10:30:02.299Z,71.66
2023-06-28T10:32:28.949Z,69.95
2023-06-28T10:34:57.721Z,69.71
2023-06-28T10:37:24.765Z,68.78
2023-06-28T10:39:52.326Z,68.30
2023-06-28T10:42:22.306Z,66.72
2023-06-28T10:44:56.253Z,65.49
2023-06-28T10:47:23.229Z,65.96
2023-06-28T10:50:09.678Z,65.68
2023-06-28T10:52:37.408Z,65.43
2023-06-28T10:55:04.518Z,64.53
2023-06-28T10:57:38.444Z,63.28
2023-06-28T11:00:10.966Z,64.54
2023-06-28T11:03:01.316Z,62.57
2023-06-28T11:05:46.787Z,62.24
2023-06-28T11:08:15.353Z,62.64
2023-06-28T11:10:46.582Z,63.23
2023-06-28T11:13:14.738Z,63.61
2023-06-28T11:15:46.127Z,64.23
2023-06-28T11:18:16.796Z,63.92
2023-06-28T11:20:52.249Z,62.90
2023-06-28T11:23:25.018Z,64.55
2023-06-28T11:26:00.952Z,61.67
2023-06-28T11:28:32.383Z,61.89
2023-06-28T11:31:23.492Z,61.88
2023-06-28T11:33:52.205Z,61.74
2023-06-28T11:36:19.769Z,61.90
2023-06-28T11:38:47.216Z,61.44
2023-06-28T11:41:17.151Z,60.98
2023-06-28T11:43:47.761Z,60.20
2023-06-28T11:46:22.554Z,60.79
2023-06-28T11:48:50.733Z,61.04
2023-06-28T11:51:17.624Z,60.27
2023-06-28T11:53:50.457Z,60.84
2023-06-28T11:56:16.953Z,59.96
2023-06-28T11:58:43.464Z,59.85
2023-06-28T12:01:20.610Z,59.30
2023-06-28T12:03:47.147Z,60.17
2023-06-28T12:06:14.054Z,60.44
2023-06-28T12:08:41.907Z,61.45
2023-06-28T12:11:17.082Z,61.06
2023-06-28T12:13:44.995Z,61.56
2023-06-28T12:16:22.571Z,61.45
2023-06-28T12:18:54.660Z,61.99
2023-06-28T12:21:25.688Z,61.77
2023-06-28T12:23:52.648Z,61.52
2023-06-28T12:26:21.753Z,61.61
2023-06-28T12:28:49.979Z,62.36
2023-06-28T12:31:17.113Z,63.63
2023-06-28T12:33:44.330Z,63.57
2023-06-28T12:36:17.158Z,63.21
2023-06-28T12:38:45.440Z,63.99
2023-06-28T12:41:14.051Z,64.51
2023-06-28T12:43:42.678Z,64.64
2023-06-28T12:46:11.307Z,65.46
2023-06-28T12:48:38.148Z,66.29
2023-06-28T12:51:04.713Z,68.70
2023-06-28T12:53:31.236Z,69.41
2023-06-28T12:55:57.786Z,68.88
2023-06-28T12:58:24.243Z,69.19
2023-06-28T13:00:50.797Z,69.74
2023-06-28T13:03:20.015Z,70.89
2023-06-28T13:05:48.654Z,70.34
2023-06-28T13:08:15.308Z,70.17
2023-06-28T13:10:42.147Z,69.96
2023-06-28T13:13:09.050Z,70.18
2023-06-28T13:15:37.502Z,70.27
2023-06-28T13:18:04.767Z,69.88
2023-06-28T13:20:31.324Z,70.03
2023-06-28T13:22:57.928Z,69.86
2023-06-28T13:25:24.527Z,70.24
2023-06-28T13:27:51.019Z,69.90
2023-06-28T13:30:17.527Z,69.67
2023-06-28T13:32:44.091Z,70.08
2023-06-28T13:35:12.262Z,70.65
2023-06-28T13:37:38.791Z,70.22
2023-06-28T13:40:06.617Z,70.03
2023-06-28T13:42:33.773Z,70.60
2023-06-28T13:45:00.295Z,70.00
2023-06-28T13:47:27.043Z,69.59
2023-06-28T13:49:53.582Z,69.89
2023-06-28T13:52:21.007Z,69.07
2023-06-28T13:54:47.613Z,69.18
2023-06-28T13:57:14.763Z,68.65
2023-06-28T13:59:41.269Z,68.93
2023-06-28T14:02:07.961Z,69.34
2023-06-28T14:04:34.473Z,69.56
2023-06-28T14:07:00.981Z,69.37
2023-06-28T14:09:27.686Z,69.14
2023-06-28T14:11:54.133Z,69.28
2023-06-28T14:14:20.732Z,69.48
2023-06-28T14:16:47.253Z,68.86
2023-06-28T14:19:13.716Z,68.94
2023-06-28T14:21:40.174Z,68.37
2023-06-28T14:24:07.020Z,67.93
2023-06-28T14:26:33.549Z,67.77
2023-06-28T14:29:01.531Z,67.27
2023-06-28T14:31:28.157Z,66.87
2023-06-28T14:33:54.655Z,66.62
2023-06-28T14:36:21.119Z,66.83
2023-06-28T14:38:47.567Z,66.85
2023-06-28T14:41:14.124Z,67.03
2023-06-28T14:43:40.649Z,67.00
2023-06-28T14:46:07.194Z,66.97
2023-06-28T14:48:33.664Z,66.69
2023-06-28T14:51:00.191Z,66.61
2023-06-28T14:53:26.667Z,66.87
2023-06-28T14:55:53.196Z,66.97
2023-06-28T14:58:19.682Z,66.02
2023-06-28T15:00:46.718Z,66.10
2023-06-28T15:03:13.817Z,66.16
2023-06-28T15:05:42.169Z,65.77
2023-06-28T15:08:08.951Z,66.32
2023-06-28T15:10:35.537Z,66.61
2023-06-28T15:13:02.014Z,66.61
2023-06-28T15:15:29.857Z,66.97
2023-06-28T15:17:56.499Z,67.71
2023-06-28T15:20:34.441Z,67.77
2023-06-28T15:23:07.206Z,68.84
2023-06-28T15:25:34.179Z,68.28
2023-06-28T15:28:00.643Z,68.61
2023-06-28T15:30:27.280Z,69.05
2023-06-28T15:32:54.015Z,69.08
2023-06-28T15:35:21.257Z,70.22
2023-06-28T15:37:48.597Z,70.55
2023-06-28T15:40:15.524Z,71.07
2023-06-28T15:42:42.194Z,71.33
2023-06-28T15:45:09.129Z,71.09
2023-06-28T15:47:35.665Z,71.40
2023-06-28T15:50:02.381Z,71.26
2023-06-28T15:52:31.134Z,71.19
2023-06-28T15:55:01.546Z,71.30
2023-06-28T15:57:28.237Z,71.34
2023-06-28T15:59:54.826Z,70.58
2023-06-28T16:02:21.927Z,71.00
2023-06-28T16:04:48.808Z,70.44
2023-06-28T16:07:15.487Z,70.49
2023-06-28T16:09:42.194Z,70.50
2023-06-28T16:12:08.989Z,70.38
2023-06-28T16:14:35.520Z,70.44
2023-06-28T16:17:04.257Z,70.63
2023-06-28T16:19:31.086Z,70.55
2023-06-28T16:21:57.606Z,70.35
2023-06-28T16:24:24.110Z,70.32
2023-06-28T16:26:50.653Z,70.96
2023-06-28T16:29:17.192Z,70.41
2023-06-28T16:31:43.880Z,69.66
2023-06-28T16:34:10.380Z,70.10
2023-06-28T16:36:41.895Z,70.12
2023-06-28T16:39:09.229Z,70.42
2023-06-28T16:41:35.846Z,71.21
2023-06-28T16:44:02.370Z,70.59
2023-06-28T16:46:28.867Z,71.00
2023-06-28T16:48:55.346Z,70.75
2023-06-28T16:51:22.203Z,70.12
2023-06-28T16:53:48.725Z,70.27
2023-06-28T16:56:15.250Z,70.45
2023-06-28T16:58:41.801Z,69.92
2023-06-28T17:01:08.399Z,69.76
2023-06-28T17:03:34.978Z,70.01
2023-06-28T17:06:01.648Z,69.64
2023-06-28T17:08:29.274Z,69.57
2023-06-28T17:10:55.804Z,69.62
2023-06-28T17:13:22.279Z,70.11
2023-06-28T17:15:48.815Z,70.11
2023-06-28T17:18:15.361Z,70.06
2023-06-28T17:20:42.074Z,70.23
2023-06-28T17:23:08.924Z,70.14
2023-06-28T17:25:35.780Z,70.03
2023-06-28T17:28:02.369Z,70.24
2023-06-28T17:30:30.184Z,70.46
2023-06-28T17:32:56.731Z,70.05
2023-06-28T17:35:23.300Z,70.38
2023-06-28T17:37:50.033Z,69.91
2023-06-28T17:40:16.552Z,70.12
2023-06-28T17:42:43.082Z,70.44
2023-06-28T17:45:10.099Z,70.27
2023-06-28T17:47:36.656Z,69.87
2023-06-28T17:50:03.514Z,69.83
2023-06-28T17:52:30.035Z,69.34
2023-06-28T17:54:58.276Z,69.60
2023-06-28T17:57:24.808Z,69.94
2023-06-28T17:59:51.435Z,69.17
2023-06-28T18:02:18.529Z,69.31
2023-06-28T18:04:45.095Z,68.95
2023-06-28T18:07:11.622Z,69.29
2023-06-28T18:09:38.213Z,69.60
2023-06-28T18:12:05.122Z,69.78
2023-06-28T18:14:31.688Z,69.69
2023-06-28T18:16:58.222Z,69.30
2023-06-28T18:19:24.659Z,69.24
2023-06-28T18:21:51.357Z,68.89
2023-06-28T18:24:17.913Z,69.03
2023-06-28T18:26:44.389Z,68.54
2023-06-28T18:29:10.917Z,68.69
2023-06-28T18:31:37.428Z,68.81
2023-06-28T18:34:04.800Z,68.16
2023-06-28T18:36:31.278Z,68.36
2023-06-28T18:38:57.882Z,68.38
2023-06-28T18:41:24.461Z,68.09
2023-06-28T18:43:51.059Z,67.60
2023-06-28T18:46:17.606Z,68.01
2023-06-28T18:48:44.094Z,68.33
2023-06-28T18:51:10.679Z,68.62
2023-06-28T18:53:37.182Z,68.86
2023-06-28T18:56:03.797Z,69.17
2023-06-28T18:58:31.784Z,69.08
2023-06-28T19:00:58.881Z,69.19
2023-06-28T19:03:26.129Z,69.36
2023-06-28T19:05:53.697Z,69.74
2023-06-28T19:08:21.203Z,69.92
2023-06-28T19:10:49.077Z,70.20
2023-06-28T19:13:16.030Z,70.10
2023-06-28T19:15:42.524Z,70.41
2023-06-28T19:18:09.200Z,70.32
2023-06-28T19:20:38.594Z,70.39
2023-06-28T19:23:05.426Z,71.38
2023-06-28T19:25:32.024Z,70.16
2023-06-28T19:27:58.502Z,71.08
2023-06-28T19:30:25.033Z,70.99
2023-06-28T19:32:51.607Z,71.01
2023-06-28T19:35:18.257Z,71.16
2023-06-28T19:37:44.758Z,71.46
2023-06-28T19:40:12.029Z,71.45
2023-06-28T19:42:38.550Z,71.38
2023-06-28T19:45:06.118Z,71.67
2023-06-28T19:47:32.796Z,71.61
2023-06-28T19:49:59.310Z,71.84
2023-06-28T19:52:27.972Z,72.23
2023-06-28T19:54:54.485Z,72.07
2023-06-28T19:57:21.016Z,71.96
2023-06-28T19:59:47.521Z,72.05
2023-06-28T20:02:14.150Z,72.07
2023-06-28T20:04:40.874Z,72.21
2023-06-28T20:07:07.558Z,72.20
2023-06-28T20:09:34.122Z,72.21
2023-06-28T20:12:00.556Z,72.43
2023-06-28T20:14:27.233Z,72.66
2023-06-28T20:16:54.115Z,72.72
2023-06-28T20:19:20.692Z,72.73
2023-06-28T20:21:48.111Z,72.71
2023-06-28T20:24:14.688Z,73.01
2023-06-28T20:26:41.136Z,73.11
2023-06-28T20:29:07.596Z,73.32
2023-06-28T20:31:34.336Z,73.39
2023-06-28T20:34:00.944Z,73.48
2023-06-28T20:36:27.529Z,73.28
2023-06-28T20:38:54.090Z,73.47
2023-06-28T20:41:25.788Z,73.14
2023-06-28T20:43:54.132Z,73.04
2023-06-28T20:46:20.711Z,73.50
2023-06-28T20:48:47.304Z,73.29
2023-06-28T20:51:14.647Z,73.21
2023-06-28T20:53:43.719Z,73.39
2023-06-28T20:56:11.074Z,73.23
2023-06-28T20:58:37.595Z,73.10
2023-06-28T21:01:06.926Z,73.00
2023-06-28T21:03:33.692Z,73.23
2023-06-28T21:06:00.142Z,73.53
2023-06-28T21:08:27.562Z,73.11
2023-06-28T21:10:54.503Z,73.18
2023-06-28T21:13:21.168Z,73.32
2023-06-28T21:15:48.295Z,73.33
2023-06-28T21:18:15.159Z,73.25
2023-06-28T21:20:41.874Z,73.11
2023-06-28T21:23:08.441Z,73.11
2023-06-28T21:25:35.757Z,73.18
2023-06-28T21:28:02.286Z,73.05
2023-06-28T21:30:28.931Z,73.13
2023-06-28T21:32:55.423Z,72.95
2023-06-28T21:35:24.231Z,73.05
2023-06-28T21:37:50.747Z,72.84
2023-06-28T21:40:17.291Z,72.60
2023-06-28T21:42:43.826Z,72.46
2023-06-28T21:45:10.846Z,72.46
2023-06-28T21:47:37.477Z,72.59
2023-06-28T21:50:05.036Z,72.09
2023-06-28T21:52:31.506Z,71.96
2023-06-28T21:54:57.997Z,72.22
2023-06-28T21:57:24.460Z,72.17
2023-06-28T21:59:51.026Z,72.16
2023-06-28T22:02:17.872Z,72.10
2023-06-28T22:04:44.514Z,71.98
2023-06-28T22:07:11.046Z,71.83
2023-06-28T22:09:37.635Z,71.85
2023-06-28T22:12:06.072Z,71.95
2023-06-28T22:14:32.763Z,71.58
2023-06-28T22:16:59.409Z,71.82
2023-06-28T22:19:27.521Z,71.74
2023-06-28T22:21:55.710Z,71.49
2023-06-28T22:24:22.274Z,71.90
2023-06-28T22:26:48.818Z,71.89
2023-06-28T22:29:15.338Z,72.11
2023-06-28T22:31:41.840Z,71.97
2023-06-28T22:34:08.337Z,72.29
2023-06-28T22:36:37.308Z,71.73
2023-06-28T22:39:06.774Z,71.58
2023-06-28T22:41:34.150Z,72.62
2023-06-28T22:44:00.666Z,71.67
2023-06-28T22:46:27.306Z,71.49
2023-06-28T22:48:53.814Z,71.81
2023-06-28T22:51:20.320Z,72.01
2023-06-28T22:53:48.138Z,72.00
2023-06-28T22:56:16.236Z,71.91
2023-06-28T22:58:42.982Z,71.81
2023-06-28T23:01:11.211Z,71.87
2023-06-28T23:03:37.803Z,72.14
2023-06-28T23:06:04.412Z,72.03
2023-06-28T23:08:32.752Z,72.12
2023-06-28T23:10:59.264Z,72.19
2023-06-28T23:13:25.791Z,72.11
2023-06-28T23:15:52.302Z,72.43
2023-06-28T23:18:21.705Z,72.36
2023-06-28T23:20:51.749Z,72.76
2023-06-28T23:23:19.264Z,72.85
2023-06-28T23:25:52.651Z,72.57
2023-06-28T23:28:19.791Z,72.77
2023-06-28T23:30:46.816Z,72.68
2023-06-28T23:33:16.499Z,72.56
2023-06-28T23:35:46.571Z,73.05
2023-06-28T23:38:13.841Z,72.84
2023-06-28T23:40:41.244Z,72.69
2023-06-28T23:43:08.491Z,72.88
2023-06-28T23:45:41.908Z,73.01
2023-06-28T23:48:09.258Z,72.72
2023-06-28T23:50:35.815Z,72.98
2023-06-28T23:53:03.078Z,73.07
2023-06-28T23:55:30.139Z,73.15
2023-06-28T23:57:57.645Z,73.18
